Crofton, United Kingdom
Current Conditions -  °F | °C
As of 1:50 PM on Monday 22 Dec 2014 (Local Time) from EGNM Reporting Station
Broken Clouds Broken Clouds  
Wind Chill: 54°   Ceiling: 1900
Heat Index: 54°   Visibility: 6mi
Dew Point: 48°   Wind: 30mph
Humidity: 82%   Direction: 260°W
Pressure: 29.68"   Gusts: 54mph
Location:  53.66°N, 1.43°W
Report Text: EGNM 221350Z 26026G47KT 9999 BKN019 12/09 Q1005
Loading
Personal Weather Stations






























Interactive Weather Map New forecast layout! Learn more

10-Day Weather Forecast

Advertisements
Track Severe Weather on mobile